Time;durP1;ratioP1;P1;durP2;ratioP2;P2;SDS_P1;SDS_P2;PMS_P1;PMS_P2;Temp;Humidity;BMP_temperature;BMP_pressure;BME280_temperature;BME280_humidity;BME280_pressure;Samples;Min_cycle;Max_cycle;Signal;HPM_P1;HPM_P2
2023/06/29 00:02:11;;;;;;;5.27;4.87;;;18.70;95.60;;;;;;4912225;29;20196;-86
2023/06/29 00:04:36;;;;;;;5.30;4.80;;;19.40;96.20;;;;;;4913804;29;20223;-85
2023/06/29 00:07:02;;;;;;;4.80;4.40;;;20.70;97.10;;;;;;4912480;29;20217;-86
2023/06/29 00:09:28;;;;;;;4.82;4.22;;;18.00;95.80;;;;;;4913922;29;20190;-86
2023/06/29 00:11:54;;;;;;;4.13;3.80;;;17.80;95.70;;;;;;4911009;29;20186;-86
2023/06/29 00:14:20;;;;;;;5.35;4.85;;;18.00;95.90;;;;;;4915133;29;20218;-86
2023/06/29 00:16:50;;;;;;;5.20;4.70;;;18.40;96.10;;;;;;4912948;29;20210;-86
2023/06/29 00:19:16;;;;;;;4.55;4.25;;;17.70;95.90;;;;;;4914076;29;20226;-86
2023/06/29 00:21:42;;;;;;;5.05;4.25;;;18.30;96.40;;;;;;4912973;29;20186;-86
2023/06/29 00:24:11;;;;;;;5.30;4.90;;;18.10;96.90;;;;;;4912268;29;20281;-86
2023/06/29 00:26:40;;;;;;;5.65;5.05;;;18.00;97.20;;;;;;4909153;29;20637;-86
2023/06/29 00:29:05;;;;;;;5.35;4.90;;;17.80;96.80;;;;;;4953222;23;20206;-70
2023/06/29 00:31:31;;;;;;;4.63;4.20;;;18.00;97.20;;;;;;4915625;29;20201;-70
2023/06/29 00:33:57;;;;;;;4.63;4.33;;;17.80;97.30;;;;;;4918463;29;20185;-70
2023/06/29 00:36:22;;;;;;;5.10;4.70;;;17.70;97.50;;;;;;4915950;29;20191;-70
2023/06/29 00:38:48;;;;;;;5.40;5.00;;;17.80;97.50;;;;;;4915383;29;20229;-70
2023/06/29 00:41:14;;;;;;;5.77;5.17;;;17.70;97.50;;;;;;4915079;29;20257;-70
2023/06/29 00:43:42;;;;;;;5.30;4.90;;;17.90;97.90;;;;;;4914163;29;20193;-71
2023/06/29 00:46:09;;;;;;;5.60;4.63;;;17.70;97.80;;;;;;4916534;29;20620;-71
2023/06/29 00:48:38;;;;;;;4.93;4.53;;;17.70;97.90;;;;;;4917012;29;20308;-71
2023/06/29 00:51:04;;;;;;;5.65;5.18;;;17.80;98.10;;;;;;4915391;29;20272;-71
2023/06/29 00:53:30;;;;;;;5.60;5.10;;;17.50;98.10;;;;;;4915033;29;20210;-70
2023/06/29 00:55:57;;;;;;;5.20;4.90;;;18.00;98.60;;;;;;4915673;29;20208;-70
2023/06/29 00:58:23;;;;;;;5.10;4.70;;;17.60;98.50;;;;;;4917492;29;20543;-70
2023/06/29 01:00:48;;;;;;;5.50;5.00;;;17.50;98.50;;;;;;4920651;29;20190;-70
2023/06/29 01:03:14;;;;;;;5.83;5.37;;;17.50;98.60;;;;;;4927121;29;20773;-70
2023/06/29 01:05:41;;;;;;;5.70;5.20;;;17.50;98.70;;;;;;4916602;29;20297;-70
2023/06/29 01:08:36;;;;;;;5.30;4.90;;;17.40;98.80;;;;;;4918419;29;20175;-70
2023/06/29 01:11:03;;;;;;;5.70;5.20;;;17.30;99.30;;;;;;4909280;29;20198;-70
2023/06/29 01:13:31;;;;;;;5.55;5.15;;;17.20;99.50;;;;;;4918020;29;20197;-70
2023/06/29 01:15:57;;;;;;;5.97;5.47;;;17.30;99.70;;;;;;4917352;29;20201;-70
2023/06/29 01:18:24;;;;;;;6.18;5.57;;;17.20;99.70;;;;;;4919463;29;20245;-71
2023/06/29 01:20:50;;;;;;;5.13;4.72;;;17.30;99.80;;;;;;4921509;29;20622;-70
2023/06/29 01:23:26;;;;;;;6.13;5.00;;;17.30;99.90;;;;;;4918375;29;20257;-71
2023/06/29 01:25:54;;;;;;;4.80;4.40;;;17.40;99.90;;;;;;4915774;29;20634;-70
2023/06/29 01:28:20;;;;;;;5.40;5.00;;;17.10;99.90;;;;;;4919594;29;20212;-70
2023/06/29 01:30:49;;;;;;;6.22;4.70;;;17.20;99.90;;;;;;4921034;29;20206;-70
2023/06/29 01:33:17;;;;;;;5.70;5.25;;;16.90;99.90;;;;;;4921149;29;20687;-70
2023/06/29 01:35:44;;;;;;;5.68;5.25;;;17.00;99.90;;;;;;4916106;29;20651;-70
2023/06/29 01:38:26;;;;;;;6.18;5.00;;;16.90;99.90;;;;;;4918121;29;20221;-70
2023/06/29 01:40:56;;;;;;;5.10;4.60;;;16.80;99.90;;;;;;4919176;29;20677;-69
2023/06/29 01:43:24;;;;;;;7.22;4.85;;;17.00;99.90;;;;;;4913938;29;20222;-69
2023/06/29 01:45:50;;;;;;;5.70;5.30;;;17.00;99.90;;;;;;4920509;29;20213;-69
2023/06/29 01:48:17;;;;;;;5.90;5.33;;;17.00;99.90;;;;;;4924492;29;20191;-71
2023/06/29 01:50:43;;;;;;;5.40;4.95;;;17.00;99.90;;;;;;4922436;29;20486;-70
2023/06/29 01:53:08;;;;;;;4.93;4.63;;;17.00;99.90;;;;;;4919302;29;20317;-70
2023/06/29 01:55:34;;;;;;;5.70;5.20;;;16.90;99.90;;;;;;4918770;29;20198;-70
2023/06/29 01:58:00;;;;;;;6.13;5.50;;;17.10;99.90;;;;;;4916810;29;20556;-71
2023/06/29 02:00:26;;;;;;;6.07;5.47;;;16.80;99.90;;;;;;4918922;29;20194;-70
2023/06/29 02:02:52;;;;;;;6.95;5.18;;;16.70;99.90;;;;;;4913433;29;20220;-71
2023/06/29 02:05:19;;;;;;;5.70;5.10;;;16.80;99.90;;;;;;4916118;29;20210;-70
2023/06/29 02:07:45;;;;;;;8.57;5.75;;;16.80;99.90;;;;;;4918627;29;20491;-71
2023/06/29 02:10:11;;;;;;;5.50;4.97;;;16.80;99.90;;;;;;4918045;29;20744;-70
2023/06/29 02:12:41;;;;;;;5.20;4.83;;;16.70;99.90;;;;;;4922320;29;20494;-70
2023/06/29 02:15:07;;;;;;;7.10;6.05;;;16.60;99.90;;;;;;4925838;29;20190;-71
2023/06/29 02:17:32;;;;;;;7.55;5.88;;;16.70;99.90;;;;;;4919380;29;20668;-71
2023/06/29 02:19:58;;;;;;;5.60;5.10;;;16.60;99.90;;;;;;4916532;29;20202;-71
2023/06/29 02:22:23;;;;;;;5.60;5.10;;;16.60;99.90;;;;;;4915404;29;20292;-71
2023/06/29 02:24:49;;;;;;;5.47;5.07;;;16.70;99.90;;;;;;4922153;29;20209;-71
2023/06/29 02:27:15;;;;;;;6.50;5.90;;;16.60;99.90;;;;;;4918661;29;20213;-71
2023/06/29 02:29:40;;;;;;;5.40;5.00;;;16.40;99.90;;;;;;4919566;29;20719;-71
2023/06/29 02:32:06;;;;;;;5.73;5.30;;;16.60;99.90;;;;;;4919142;29;20297;-71
2023/06/29 02:34:32;;;;;;;6.20;5.50;;;16.70;99.90;;;;;;4920838;29;20193;-71
2023/06/29 02:36:57;;;;;;;5.97;5.47;;;16.40;99.90;;;;;;4919985;29;20482;-71
2023/06/29 02:39:23;;;;;;;6.00;5.60;;;16.50;99.90;;;;;;4915516;29;20714;-71
2023/06/29 02:41:48;;;;;;;5.87;5.37;;;16.50;99.90;;;;;;4918148;29;20580;-71
2023/06/29 02:44:14;;;;;;;6.07;5.67;;;16.80;99.90;;;;;;4918663;29;20197;-71
2023/06/29 02:46:40;;;;;;;5.50;5.10;;;16.40;99.90;;;;;;4921317;29;20221;-70
2023/06/29 02:49:06;;;;;;;5.65;5.25;;;16.60;99.90;;;;;;4916851;29;20185;-70
2023/06/29 02:51:32;;;;;;;6.90;5.78;;;16.60;99.90;;;;;;4912838;29;20233;-71
2023/06/29 02:53:58;;;;;;;6.07;5.60;;;16.50;99.90;;;;;;4922861;29;20223;-71
2023/06/29 02:56:23;;;;;;;5.53;5.13;;;16.40;99.90;;;;;;4918183;29;20262;-71
2023/06/29 02:58:49;;;;;;;5.50;5.10;;;16.30;99.90;;;;;;4919986;29;20197;-70
2023/06/29 03:01:15;;;;;;;5.73;5.17;;;16.60;99.90;;;;;;4919538;29;20206;-71
2023/06/29 03:03:40;;;;;;;6.50;5.90;;;16.50;99.90;;;;;;4921147;29;20249;-70
2023/06/29 03:06:06;;;;;;;6.03;5.20;;;16.50;99.90;;;;;;4917674;29;20222;-70
2023/06/29 03:08:32;;;;;;;5.87;5.27;;;16.50;99.90;;;;;;4924851;29;20438;-71
2023/06/29 03:10:57;;;;;;;5.53;5.13;;;16.40;99.90;;;;;;4917535;29;20183;-71
2023/06/29 03:13:23;;;;;;;6.87;5.70;;;16.50;99.90;;;;;;4917536;29;20210;-70
2023/06/29 03:15:48;;;;;;;6.13;5.73;;;16.30;99.90;;;;;;4920515;29;20182;-70
2023/06/29 03:18:14;;;;;;;6.67;6.00;;;16.40;99.90;;;;;;4915946;29;20205;-71
2023/06/29 03:20:39;;;;;;;6.03;5.47;;;16.30;99.90;;;;;;4914146;29;20217;-71
2023/06/29 03:23:05;;;;;;;5.83;5.30;;;16.30;99.90;;;;;;4918015;29;20587;-71
2023/06/29 03:25:31;;;;;;;6.23;5.63;;;16.50;99.90;;;;;;4917669;29;20210;-71
2023/06/29 03:27:56;;;;;;;6.23;5.70;;;16.40;99.90;;;;;;4914049;29;20659;-70
2023/06/29 03:30:22;;;;;;;5.73;5.23;;;16.30;99.90;;;;;;4918258;29;20202;-70
2023/06/29 03:32:48;;;;;;;5.83;5.33;;;16.40;99.90;;;;;;4920402;29;20422;-70
2023/06/29 03:35:13;;;;;;;6.33;5.83;;;16.20;99.90;;;;;;4918465;29;20235;-70
2023/06/29 03:37:39;;;;;;;6.33;5.73;;;16.30;99.90;;;;;;4922175;29;20606;-70
2023/06/29 03:40:05;;;;;;;6.23;5.13;;;16.20;99.90;;;;;;4923963;29;20247;-69
2023/06/29 03:42:31;;;;;;;6.45;5.95;;;16.30;99.90;;;;;;4920457;29;20667;-70
2023/06/29 03:44:56;;;;;;;5.97;5.47;;;16.40;99.90;;;;;;4918779;29;20217;-70
2023/06/29 03:47:22;;;;;;;6.60;6.10;;;16.20;99.90;;;;;;4916696;29;20285;-70
2023/06/29 03:49:47;;;;;;;6.07;5.67;;;15.90;99.90;;;;;;4918724;29;20207;-71
2023/06/29 03:52:13;;;;;;;5.87;5.43;;;16.10;99.90;;;;;;4916047;29;20210;-70
2023/06/29 03:54:39;;;;;;;6.20;5.60;;;16.20;99.90;;;;;;4915472;29;20238;-70
2023/06/29 03:57:05;;;;;;;6.77;6.27;;;16.20;99.90;;;;;;4915197;29;20260;-71
2023/06/29 03:59:31;;;;;;;6.50;5.90;;;16.10;99.90;;;;;;4915730;29;20942;-70
2023/06/29 04:01:57;;;;;;;6.00;5.57;;;16.30;99.90;;;;;;4919986;29;20264;-70
2023/06/29 04:04:23;;;;;;;6.38;5.95;;;16.30;99.90;;;;;;4917974;29;20631;-71
2023/06/29 04:06:48;;;;;;;7.37;6.43;;;16.30;99.90;;;;;;4915764;29;20258;-70
2023/06/29 04:09:14;;;;;;;6.17;5.30;;;16.40;99.90;;;;;;4918200;29;20265;-70
2023/06/29 04:11:39;;;;;;;6.10;5.60;;;16.50;99.90;;;;;;4913628;29;20207;-70
2023/06/29 04:14:05;;;;;;;6.63;6.03;;;16.60;99.90;;;;;;4917380;29;20300;-70
2023/06/29 04:16:31;;;;;;;6.60;6.10;;;16.40;99.90;;;;;;4919732;29;20220;-70
2023/06/29 04:18:56;;;;;;;6.17;5.67;;;16.60;99.90;;;;;;4917879;29;20228;-70
2023/06/29 04:21:22;;;;;;;6.20;5.70;;;16.50;99.90;;;;;;4918710;29;20233;-71
2023/06/29 04:23:47;;;;;;;6.93;6.33;;;16.60;99.90;;;;;;4916971;29;20632;-70
2023/06/29 04:26:15;;;;;;;6.27;5.67;;;16.40;99.90;;;;;;4920845;29;20217;-70
2023/06/29 04:28:44;;;;;;;6.45;5.85;;;16.50;99.90;;;;;;4911709;29;20194;-71
2023/06/29 04:31:11;;;;;;;7.03;5.30;;;;;;;;;;4916094;29;20261;-70
2023/06/29 04:33:36;;;;;;;7.10;6.55;;;16.60;99.90;;;;;;4921056;29;20281;-70
2023/06/29 04:36:02;;;;;;;6.10;5.50;;;16.70;99.90;;;;;;4917725;28;20742;-70
2023/06/29 04:38:28;;;;;;;5.80;5.30;;;16.90;99.90;;;;;;4912669;29;20189;-69
2023/06/29 04:41:03;;;;;;;6.53;5.90;;;16.80;99.90;;;;;;4920209;29;20186;-70
2023/06/29 04:43:30;;;;;;;7.30;6.60;;;17.00;99.90;;;;;;4922476;29;20209;-70
2023/06/29 04:45:56;;;;;;;7.18;6.35;;;17.10;99.90;;;;;;4919983;29;20224;-69
2023/06/29 04:48:28;;;;;;;6.63;6.13;;;17.10;99.90;;;;;;4922042;29;20228;-70
2023/06/29 04:51:04;;;;;;;7.85;6.00;;;17.20;99.90;;;;;;4918517;29;20921;-72
2023/06/29 04:53:29;;;;;;;7.30;6.60;;;17.20;99.90;;;;;;4914053;29;20620;-68
2023/06/29 04:55:55;;;;;;;7.77;6.50;;;17.40;99.90;;;;;;4926375;29;20193;-70
2023/06/29 04:58:20;;;;;;;6.50;5.90;;;17.50;99.90;;;;;;4922591;29;20550;-68
2023/06/29 05:00:46;;;;;;;6.37;5.80;;;17.80;99.90;;;;;;4920604;29;20194;-67
2023/06/29 05:03:11;;;;;;;6.10;5.60;;;17.40;99.90;;;;;;4922927;29;20205;-68
2023/06/29 05:05:37;;;;;;;6.03;5.53;;;17.80;99.90;;;;;;4920553;29;20305;-70
2023/06/29 05:08:03;;;;;;;6.30;5.80;;;17.90;99.90;;;;;;4923149;29;20603;-70
2023/06/29 05:10:28;;;;;;;6.77;6.17;;;18.10;99.90;;;;;;4920060;29;20212;-68
2023/06/29 05:12:54;;;;;;;8.50;6.63;;;18.50;99.90;;;;;;4917471;29;20236;-68
2023/06/29 05:15:19;;;;;;;6.93;6.37;;;18.20;99.90;;;;;;4923363;29;20217;-69
2023/06/29 05:17:45;;;;;;;6.87;5.73;;;18.30;99.90;;;;;;4915302;29;20190;-67
2023/06/29 05:20:13;;;;;;;6.13;5.63;;;18.20;99.70;;;;;;4916743;29;20194;-68
2023/06/29 05:22:38;;;;;;;6.45;5.85;;;18.50;99.60;;;;;;4917840;29;20305;-69
2023/06/29 05:25:04;;;;;;;8.47;6.80;;;18.60;99.40;;;;;;4916581;29;20297;-71
2023/06/29 05:27:30;;;;;;;5.77;5.27;;;18.60;99.20;;;;;;4915173;29;20687;-68
2023/06/29 05:30:02;;;;;;;5.70;5.30;;;18.70;99.20;;;;;;4921439;29;20746;-68
2023/06/29 05:32:28;;;;;;;6.18;5.68;;;18.90;98.80;;;;;;4928630;29;20717;-68
2023/06/29 05:34:54;;;;;;;6.30;5.67;;;19.00;98.50;;;;;;4919709;29;20191;-68
2023/06/29 05:37:20;;;;;;;7.13;6.43;;;18.30;97.80;;;;;;4917547;29;20205;-68
2023/06/29 05:39:46;;;;;;;8.10;6.40;;;18.80;97.50;;;;;;4921094;29;20656;-68
2023/06/29 05:42:12;;;;;;;6.75;5.13;;;19.30;97.40;;;;;;4919013;29;20868;-69
2023/06/29 05:44:37;;;;;;;6.60;5.93;;;19.40;97.30;;;;;;4926187;29;20185;-69
2023/06/29 05:47:03;;;;;;;6.67;6.07;;;19.60;97.10;;;;;;4920395;29;20205;-68
2023/06/29 05:49:29;;;;;;;5.90;5.50;;;19.60;96.50;;;;;;4922628;29;20184;-68
2023/06/29 05:51:55;;;;;;;6.63;6.03;;;19.80;96.40;;;;;;4919502;29;21009;-69
2023/06/29 05:54:20;;;;;;;6.43;5.87;;;20.00;96.10;;;;;;4923536;29;20785;-68
2023/06/29 05:56:46;;;;;;;8.33;6.40;;;20.00;95.90;;;;;;4920733;29;20289;-70
2023/06/29 05:59:11;;;;;;;7.77;5.63;;;20.00;95.60;;;;;;4918735;29;20277;-70
2023/06/29 06:01:38;;;;;;;6.10;5.60;;;20.00;95.20;;;;;;4915065;29;20272;-70
2023/06/29 06:04:04;;;;;;;6.25;5.65;;;20.20;95.40;;;;;;4922241;29;20290;-69
2023/06/29 06:06:32;;;;;;;6.67;6.07;;;20.40;95.10;;;;;;4923290;29;20301;-70
2023/06/29 06:08:58;;;;;;;6.47;5.85;;;20.60;94.70;;;;;;4920717;29;20452;-70
2023/06/29 06:11:25;;;;;;;5.93;5.40;;;20.60;94.40;;;;;;4916627;29;20191;-69
2023/06/29 06:13:50;;;;;;;5.88;5.38;;;20.60;94.10;;;;;;4927093;29;20445;-70
2023/06/29 06:16:16;;;;;;;6.90;5.20;;;20.80;94.10;;;;;;4918644;29;20194;-70
2023/06/29 06:18:42;;;;;;;5.77;5.30;;;21.00;93.70;;;;;;4915099;29;20692;-72
2023/06/29 06:21:07;;;;;;;5.83;4.90;;;21.10;93.70;;;;;;4917184;29;20201;-70
2023/06/29 06:23:33;;;;;;;6.70;5.77;;;21.40;93.60;;;;;;4916314;29;20753;-70
2023/06/29 06:25:59;;;;;;;7.37;5.40;;;21.50;93.00;;;;;;4918320;29;20213;-71
2023/06/29 06:28:25;;;;;;;7.23;6.43;;;21.80;92.60;;;;;;4916923;29;20178;-70
2023/06/29 06:30:51;;;;;;;6.30;5.45;;;22.00;92.00;;;;;;4926158;23;20229;-73
2023/06/29 06:33:17;;;;;;;13.03;5.73;;;22.30;91.60;;;;;;4892167;29;20218;-74
2023/06/29 06:35:43;;;;;;;5.33;4.87;;;22.50;91.10;;;;;;4893260;29;20221;-72
2023/06/29 06:38:09;;;;;;;4.27;3.87;;;22.30;90.60;;;;;;4893167;29;21228;-73
2023/06/29 06:40:34;;;;;;;5.33;4.33;;;22.10;88.10;;;;;;4887617;29;20496;-72
2023/06/29 06:43:00;;;;;;;4.03;3.73;;;22.80;87.50;;;;;;4886592;29;20217;-74
2023/06/29 06:45:26;;;;;;;5.17;4.77;;;22.90;86.50;;;;;;4890004;29;20214;-72
2023/06/29 06:47:51;;;;;;;6.87;3.53;;;23.10;86.20;;;;;;4890474;29;20222;-74
2023/06/29 06:50:17;;;;;;;4.63;4.13;;;23.20;85.10;;;;;;4889936;29;20723;-73
2023/06/29 06:52:42;;;;;;;5.17;4.40;;;23.40;84.20;;;;;;4892305;29;20639;-74
2023/06/29 06:55:08;;;;;;;8.53;4.53;;;23.40;84.40;;;;;;4885104;29;21015;-74
2023/06/29 06:57:34;;;;;;;4.97;4.47;;;23.40;84.40;;;;;;4889009;29;20191;-72
2023/06/29 07:00:00;;;;;;;7.80;5.03;;;23.60;84.30;;;;;;4894347;29;20968;-74
2023/06/29 07:02:25;;;;;;;7.13;4.97;;;24.10;83.90;;;;;;4886695;29;20722;-74
2023/06/29 07:04:51;;;;;;;5.03;4.57;;;24.10;82.70;;;;;;4883665;29;20215;-71
2023/06/29 07:07:16;;;;;;;5.67;4.63;;;25.00;80.30;;;;;;4887041;29;20191;-71
2023/06/29 07:09:43;;;;;;;6.80;5.40;;;25.80;76.80;;;;;;4886279;29;20832;-70
2023/06/29 07:12:09;;;;;;;5.40;4.70;;;28.00;71.50;;;;;;4886794;29;20220;-73
2023/06/29 07:14:36;;;;;;;6.60;4.50;;;30.30;63.40;;;;;;4887096;29;20897;-72
2023/06/29 07:17:02;;;;;;;6.47;5.97;;;32.10;57.70;;;;;;4886751;29;20198;-74
2023/06/29 07:19:27;;;;;;;6.43;5.30;;;34.80;52.20;;;;;;4885628;29;20450;-74
2023/06/29 07:21:54;;;;;;;6.70;5.27;;;36.80;47.20;;;;;;4889809;29;20215;-75
2023/06/29 07:24:21;;;;;;;5.73;5.03;;;37.00;44.00;;;;;;4897275;29;20315;-72
2023/06/29 07:26:46;;;;;;;5.43;4.93;;;38.60;41.90;;;;;;4884487;29;20518;-72
2023/06/29 07:29:12;;;;;;;5.00;4.60;;;40.70;38.20;;;;;;4888777;29;20451;-72
2023/06/29 07:31:39;;;;;;;4.80;4.30;;;42.40;34.60;;;;;;4887040;29;20215;-73
2023/06/29 07:34:06;;;;;;;4.40;4.00;;;43.10;32.00;;;;;;4887838;29;20546;-72
2023/06/29 07:36:31;;;;;;;4.40;4.00;;;42.20;30.30;;;;;;4885335;29;20531;-75
2023/06/29 07:38:57;;;;;;;5.53;4.40;;;39.20;32.70;;;;;;4890721;29;20226;-72
2023/06/29 07:41:23;;;;;;;6.03;4.23;;;38.50;33.40;;;;;;4886613;29;20286;-72
2023/06/29 07:43:53;;;;;;;3.83;2.40;;;38.30;34.10;;;;;;4891839;29;20207;-72
2023/06/29 07:46:18;;;;;;;3.30;3.00;;;37.50;33.10;;;;;;4886392;29;20578;-74
2023/06/29 07:48:44;;;;;;;4.90;3.60;;;37.10;33.50;;;;;;4890279;29;20984;-71
2023/06/29 07:51:10;;;;;;;3.10;2.90;;;35.60;35.60;;;;;;4887888;29;20197;-72
2023/06/29 07:53:36;;;;;;;3.37;3.00;;;34.30;37.30;;;;;;4890166;29;20183;-72
2023/06/29 07:56:02;;;;;;;3.70;3.40;;;33.80;38.60;;;;;;4885596;29;20823;-71
2023/06/29 07:58:28;;;;;;;3.90;3.23;;;34.10;39.10;;;;;;4887603;29;20210;-71
2023/06/29 08:00:54;;;;;;;6.30;3.10;;;34.20;38.30;;;;;;4888742;29;21044;-73
2023/06/29 08:03:20;;;;;;;3.80;3.50;;;35.60;37.30;;;;;;4888067;29;20285;-71
2023/06/29 08:05:46;;;;;;;2.97;2.77;;;36.00;35.80;;;;;;4889037;29;20507;-72
2023/06/29 08:08:12;;;;;;;4.00;3.10;;;36.60;35.30;;;;;;4888634;29;20483;-75
2023/06/29 08:10:38;;;;;;;2.60;2.40;;;36.90;34.60;;;;;;4886488;29;20255;-76
2023/06/29 08:13:03;;;;;;;3.30;3.00;;;36.80;34.90;;;;;;4885062;29;20980;-74
2023/06/29 08:15:29;;;;;;;3.47;3.17;;;36.50;35.20;;;;;;4888465;29;20198;-73
2023/06/29 08:17:55;;;;;;;3.83;3.40;;;35.60;36.10;;;;;;4890639;29;20191;-72
2023/06/29 08:20:22;;;;;;;2.93;2.63;;;34.90;37.40;;;;;;4888681;29;20194;-73
2023/06/29 08:22:48;;;;;;;3.23;2.90;;;35.50;37.10;;;;;;4889156;29;20214;-71
2023/06/29 08:25:15;;;;;;;3.33;3.03;;;35.00;37.30;;;;;;4885810;29;20976;-71
2023/06/29 08:27:41;;;;;;;3.70;3.40;;;34.70;38.00;;;;;;4885855;29;20817;-72
2023/06/29 08:30:10;;;;;;;3.10;2.80;;;34.50;38.10;;;;;;4890511;29;21018;-71
2023/06/29 08:32:35;;;;;;;4.53;2.93;;;34.00;39.00;;;;;;4890888;29;20467;-74
2023/06/29 08:35:01;;;;;;;3.90;3.00;;;33.70;39.50;;;;;;4886845;29;20459;-77
2023/06/29 08:37:28;;;;;;;4.07;3.67;;;34.20;39.40;;;;;;4886013;29;20303;-74
2023/06/29 08:39:54;;;;;;;3.90;3.07;;;34.20;38.30;;;;;;4888385;29;20186;-73
2023/06/29 08:42:21;;;;;;;3.10;2.90;;;34.80;38.60;;;;;;4888096;29;21007;-74
2023/06/29 08:44:47;;;;;;;3.53;2.93;;;35.00;37.30;;;;;;4887807;29;20454;-73
2023/06/29 08:47:14;;;;;;;5.23;2.77;;;36.00;36.60;;;;;;4885606;29;20449;-73
2023/06/29 08:49:42;;;;;;;3.40;3.10;;;36.20;35.50;;;;;;4890861;29;20451;-72
2023/06/29 08:52:12;;;;;;;3.67;2.87;;;35.10;36.00;;;;;;4888949;29;21009;-70
2023/06/29 08:54:38;;;;;;;4.27;2.80;;;35.30;36.70;;;;;;4887786;29;20455;-72
2023/06/29 08:57:05;;;;;;;4.67;3.17;;;35.90;36.10;;;;;;4887742;29;20458;-72
2023/06/29 08:59:32;;;;;;;3.13;2.70;;;36.30;35.70;;;;;;4885725;29;21003;-75
2023/06/29 09:01:58;;;;;;;3.60;3.13;;;36.40;34.50;;;;;;4899562;29;20474;-73
2023/06/29 09:04:24;;;;;;;4.37;2.97;;;36.80;35.00;;;;;;4887196;29;20459;-73
2023/06/29 09:06:53;;;;;;;3.03;2.80;;;37.10;34.20;;;;;;4885660;29;20992;-73
2023/06/29 09:09:20;;;;;;;3.33;2.93;;;37.90;34.50;;;;;;4883016;29;20447;-74
2023/06/29 09:11:46;;;;;;;4.83;3.00;;;38.80;32.30;;;;;;4887116;29;20832;-71
2023/06/29 09:14:11;;;;;;;3.00;2.70;;;38.20;32.40;;;;;;4880850;29;20455;-71
2023/06/29 09:16:52;;;;;;;3.93;3.20;;;37.70;32.40;;;;;;4887013;29;20182;-72
2023/06/29 09:19:22;;;;;;;3.03;2.83;;;37.00;33.60;;;;;;4891081;29;20199;-74
2023/06/29 09:21:48;;;;;;;3.70;3.20;;;36.30;34.30;;;;;;4885737;29;20547;-73
2023/06/29 09:24:14;;;;;;;2.63;2.43;;;36.60;34.00;;;;;;4882411;29;20439;-73
2023/06/29 09:26:40;;;;;;;3.50;2.83;;;37.00;33.50;;;;;;4886973;29;21065;-72
2023/06/29 09:29:06;;;;;;;3.17;2.87;;;37.30;32.70;;;;;;4889528;29;20441;-78
2023/06/29 09:31:35;;;;;;;2.93;2.73;;;37.30;32.90;;;;;;4894598;29;20464;-75
2023/06/29 09:34:21;;;;;;;3.27;2.87;;;37.00;33.20;;;;;;4887685;29;20474;-72
2023/06/29 09:36:48;;;;;;;4.03;3.07;;;37.20;33.10;;;;;;4885535;29;20489;-72
2023/06/29 09:39:13;;;;;;;2.93;2.37;;;36.50;33.10;;;;;;4892750;29;20995;-73
2023/06/29 09:41:49;;;;;;;3.50;2.93;;;36.60;33.90;;;;;;4883540;29;20474;-76
2023/06/29 09:44:19;;;;;;;2.87;2.67;;;37.30;33.40;;;;;;4884836;29;20218;-74
2023/06/29 09:47:04;;;;;;;5.10;3.27;;;37.50;32.40;;;;;;4891077;29;20502;-72
2023/06/29 09:49:31;;;;;;;2.70;2.50;;;36.50;33.60;;;;;;4887853;29;20547;-71
2023/06/29 09:52:04;;;;;;;2.57;2.43;;;35.50;34.10;;;;;;4890352;29;20557;-73
2023/06/29 09:54:36;;;;;;;3.10;2.80;;;34.70;35.30;;;;;;4891201;29;20451;-73
2023/06/29 09:57:07;;;;;;;2.97;2.77;;;33.90;36.70;;;;;;4888403;29;20471;-74
2023/06/29 09:59:38;;;;;;;4.30;3.20;;;34.00;37.00;;;;;;4889626;29;20484;-77
2023/06/29 10:02:04;;;;;;;5.40;2.53;;;34.10;37.00;;;;;;4890839;29;20462;-76
2023/06/29 10:04:29;;;;;;;3.13;2.50;;;34.50;35.90;;;;;;4884296;29;20455;-72
2023/06/29 10:07:06;;;;;;;3.00;2.70;;;34.60;35.70;;;;;;4882919;29;20472;-72
2023/06/29 10:09:39;;;;;;;3.00;2.80;;;34.30;36.00;;;;;;4894159;29;20202;-71
2023/06/29 10:12:09;;;;;;;3.60;2.57;;;34.90;36.00;;;;;;4884805;29;20472;-73
2023/06/29 10:14:36;;;;;;;2.33;2.07;;;35.70;34.60;;;;;;4893121;29;20442;-77
2023/06/29 10:17:07;;;;;;;2.70;2.50;;;36.70;33.40;;;;;;4887180;29;20877;-71
2023/06/29 10:19:35;;;;;;;4.03;2.60;;;37.10;32.60;;;;;;4887159;29;20448;-74
2023/06/29 10:22:10;;;;;;;2.73;2.53;;;37.30;31.80;;;;;;4888684;29;20459;-72
2023/06/29 10:24:58;;;;;;;3.40;2.83;;;37.30;32.50;;;;;;4887840;29;20602;-73
2023/06/29 10:27:28;;;;;;;4.10;2.70;;;37.50;32.10;;;;;;4880006;29;20447;-72
2023/06/29 10:29:54;;;;;;;3.07;2.77;;;37.70;32.10;;;;;;4890318;29;20462;-76
2023/06/29 10:32:37;;;;;;;6.23;5.70;;;37.00;32.60;;;;;;4888127;29;20610;-76
2023/06/29 10:35:05;;;;;;;3.13;2.93;;;36.40;34.20;;;;;;4887157;29;20240;-75
2023/06/29 10:37:32;;;;;;;4.83;3.10;;;36.40;33.50;;;;;;4889148;29;20949;-73
2023/06/29 10:39:58;;;;;;;3.40;3.10;;;36.10;34.10;;;;;;4889172;29;20485;-75
2023/06/29 10:42:24;;;;;;;4.10;3.50;;;34.90;35.50;;;;;;4886832;29;20926;-73
2023/06/29 10:44:50;;;;;;;4.10;3.00;;;34.30;36.00;;;;;;4886805;29;20888;-73
2023/06/29 10:47:30;;;;;;;4.03;3.10;;;34.30;36.30;;;;;;4888906;29;20289;-71
2023/06/29 10:50:21;;;;;;;3.60;3.30;;;34.70;36.20;;;;;;4887126;29;20187;-73
2023/06/29 10:52:49;;;;;;;4.13;3.37;;;35.30;35.20;;;;;;4883233;29;20503;-76
2023/06/29 10:55:19;;;;;;;3.80;3.03;;;35.80;35.00;;;;;;4890348;29;20527;-76
2023/06/29 10:57:58;;;;;;;3.90;3.60;;;35.40;35.10;;;;;;4887054;29;21051;-72
2023/06/29 11:00:25;;;;;;;3.17;2.93;;;34.90;35.60;;;;;;4889894;29;20478;-74
2023/06/29 11:02:52;;;;;;;3.70;3.40;;;35.20;35.40;;;;;;4895615;29;20459;-71
2023/06/29 11:05:22;;;;;;;3.73;3.43;;;36.20;34.50;;;;;;4885621;29;20483;-75
2023/06/29 11:07:52;;;;;;;4.80;3.50;;;37.30;33.90;;;;;;4890606;29;20518;-74
2023/06/29 11:10:22;;;;;;;4.37;3.97;;;38.20;32.00;;;;;;4894045;29;20984;-73
2023/06/29 11:12:54;;;;;;;4.13;3.73;;;39.30;31.00;;;;;;4889999;29;20479;-74
2023/06/29 11:15:21;;;;;;;5.10;3.80;;;39.70;30.60;;;;;;4889648;29;20446;-73
2023/06/29 11:17:49;;;;;;;3.97;3.67;;;38.70;31.00;;;;;;4891645;29;20956;-75
2023/06/29 11:20:20;;;;;;;4.00;3.60;;;39.60;30.20;;;;;;4887532;29;21066;-75
2023/06/29 11:22:47;;;;;;;4.20;3.90;;;39.60;29.60;;;;;;4889953;29;20474;-72
2023/06/29 11:25:14;;;;;;;3.50;3.30;;;38.90;30.60;;;;;;4887155;29;20847;-75
2023/06/29 11:27:44;;;;;;;3.53;3.23;;;38.80;30.20;;;;;;4882132;29;20491;-73
2023/06/29 11:30:11;;;;;;;3.90;3.60;;;39.10;30.70;;;;;;4891286;29;20463;-74
2023/06/29 11:32:37;;;;;;;3.90;3.33;;;38.80;30.30;;;;;;4889901;29;20466;-74
2023/06/29 11:35:05;;;;;;;4.03;3.77;;;38.10;31.80;;;;;;4887046;29;20460;-74
2023/06/29 11:37:31;;;;;;;5.80;3.83;;;37.70;32.70;;;;;;4885935;29;20856;-73
2023/06/29 11:39:57;;;;;;;4.13;3.73;;;37.60;31.80;;;;;;4889100;29;20466;-73
2023/06/29 11:42:24;;;;;;;3.47;3.17;;;36.70;33.10;;;;;;4882606;29;21724;-72
2023/06/29 11:44:59;;;;;;;3.63;3.43;;;36.80;33.40;;;;;;4887088;29;20605;-73
2023/06/29 11:47:25;;;;;;;4.47;4.07;;;36.30;33.90;;;;;;4888656;29;21031;-73
2023/06/29 11:49:50;;;;;;;4.10;3.70;;;35.80;33.90;;;;;;4887084;29;20456;-72
2023/06/29 11:52:16;;;;;;;4.17;3.87;;;34.70;35.70;;;;;;4887727;29;20816;-74
2023/06/29 11:54:43;;;;;;;5.03;4.20;;;34.00;36.70;;;;;;4890968;29;20273;-72
2023/06/29 11:57:08;;;;;;;4.67;4.30;;;33.50;37.40;;;;;;4885041;29;20932;-71
2023/06/29 11:59:38;;;;;;;4.40;4.00;;;32.90;38.20;;;;;;4885245;29;20517;-75
2023/06/29 12:02:04;;;;;;;4.40;4.03;;;32.50;39.00;;;;;;4886106;29;20214;-72
2023/06/29 12:04:30;;;;;;;5.47;4.97;;;32.30;39.30;;;;;;4890710;29;20454;-74
2023/06/29 12:06:56;;;;;;;6.70;4.17;;;31.60;39.90;;;;;;4888347;29;20216;-72
2023/06/29 12:09:32;;;;;;;4.83;4.43;;;31.30;40.60;;;;;;4888426;29;20956;-77
2023/06/29 12:11:59;;;;;;;5.07;4.67;;;31.30;41.10;;;;;;4889799;29;20472;-74
2023/06/29 12:14:34;;;;;;;5.80;3.93;;;31.40;41.40;;;;;;4885059;29;20439;-75
2023/06/29 12:17:00;;;;;;;6.57;4.00;;;31.60;40.90;;;;;;4888524;29;20505;-73
2023/06/29 12:19:31;;;;;;;7.00;5.07;;;31.70;41.00;;;;;;4886010;29;20469;-74
2023/06/29 12:21:56;;;;;;;5.73;5.10;;;31.80;40.50;;;;;;4887682;29;20467;-72
2023/06/29 12:24:25;;;;;;;5.53;4.93;;;31.90;40.60;;;;;;4890660;29;20479;-72
2023/06/29 12:26:51;;;;;;;5.80;5.20;;;32.10;40.40;;;;;;4887282;29;20742;-71
2023/06/29 12:29:17;;;;;;;5.40;4.90;;;;;;;;;;4909008;23;20514;-89
2023/06/29 12:31:42;;;;;;;5.57;5.07;;;;;;;;;;4892113;29;20276;-89
2023/06/29 12:34:08;;;;;;;6.70;6.10;;;;;;;;;;4891056;29;20512;-89
2023/06/29 12:36:34;;;;;;;4.83;4.43;;;31.50;40.30;;;;;;4902558;29;20497;-89
2023/06/29 12:39:00;;;;;;;5.13;4.73;;;;;;;;;;4887510;29;20509;-88
2023/06/29 12:41:25;;;;;;;6.70;5.03;;;31.30;41.00;;;;;;4895145;29;20220;-88
2023/06/29 12:43:51;;;;;;;7.30;5.87;;;31.00;41.80;;;;;;4886409;29;20512;-88
2023/06/29 12:46:18;;;;;;;6.13;5.47;;;31.10;42.10;;;;;;4889081;29;20291;-89
2023/06/29 12:48:45;;;;;;;6.73;6.00;;;31.30;42.60;;;;;;4897919;29;20194;-88